Time;durP1;ratioP1;P1;durP2;ratioP2;P2;SDS_P1;SDS_P2;PMS_P1;PMS_P2;Temp;Humidity;BMP_temperature;BMP_pressure;BME280_temperature;BME280_humidity;BME280_pressure;Samples;Min_cycle;Max_cycle;Signal;HPM_P1;HPM_P2
2022/11/13 00:01:25;;;;;;;29.90;17.02;;;;;;;5.61;100.00;101618.06;4997529;28;20654;-75
2022/11/13 00:03:52;;;;;;;30.65;16.80;;;;;;;5.62;100.00;101612.69;4996915;28;20237;-74
2022/11/13 00:06:19;;;;;;;26.25;17.45;;;;;;;5.66;100.00;101615.38;4995519;28;20205;-76
2022/11/13 00:08:47;;;;;;;41.75;17.10;;;;;;;5.62;100.00;101612.69;4997189;28;20214;-75
2022/11/13 00:11:17;;;;;;;33.08;17.95;;;;;;;5.51;100.00;101603.84;4996847;28;20226;-77
2022/11/13 00:13:44;;;;;;;43.22;18.02;;;;;;;5.52;100.00;101610.97;4998518;28;20218;-75
2022/11/13 00:16:13;;;;;;;33.65;17.45;;;;;;;5.49;100.00;101602.97;4997437;28;20210;-75
2022/11/13 00:18:40;;;;;;;29.73;16.63;;;;;;;5.57;100.00;101598.47;4998401;28;20202;-74
2022/11/13 00:21:08;;;;;;;25.10;15.38;;;;;;;5.57;100.00;101603.81;4996726;28;20298;-74
2022/11/13 00:23:36;;;;;;;37.35;17.38;;;;;;;5.58;100.00;101602.03;4995899;28;20210;-72
2022/11/13 00:26:05;;;;;;;29.23;16.45;;;;;;;5.62;100.00;101590.44;4998278;28;20200;-74
2022/11/13 00:28:31;;;;;;;42.60;17.67;;;;;;;5.62;100.00;101595.78;4994856;28;20233;-74
2022/11/13 00:30:59;;;;;;;21.10;14.50;;;;;;;5.62;100.00;101591.31;4996141;28;20294;-74
2022/11/13 00:33:27;;;;;;;27.45;14.90;;;;;;;5.64;100.00;101583.28;4995473;28;20237;-73
2022/11/13 00:35:54;;;;;;;30.23;16.48;;;;;;;5.63;100.00;101584.16;4996984;28;20203;-75
2022/11/13 00:38:20;;;;;;;25.35;14.55;;;;;;;5.55;100.00;101586.91;4996375;28;20264;-75
2022/11/13 00:40:47;;;;;;;26.55;16.67;;;;;;;5.59;100.00;101591.34;4996365;28;20210;-73
2022/11/13 00:43:14;;;;;;;22.17;16.00;;;;;;;5.62;100.00;101588.63;4995983;28;20633;-74
2022/11/13 00:45:41;;;;;;;26.10;15.40;;;;;;;5.61;100.00;101578.84;4996054;28;20269;-74
2022/11/13 00:48:07;;;;;;;42.67;16.25;;;;;;;5.60;100.00;101581.53;4995010;28;20232;-74
2022/11/13 00:50:35;;;;;;;20.67;13.65;;;;;;;5.63;100.00;101579.75;4996562;28;20212;-74
2022/11/13 00:53:01;;;;;;;21.17;14.20;;;;;;;5.60;100.00;101584.19;4997212;28;20321;-74
2022/11/13 00:55:28;;;;;;;39.55;17.00;;;;;;;5.58;100.00;101578.84;4996154;28;20199;-74
2022/11/13 00:57:54;;;;;;;20.25;14.02;;;;;;;5.55;100.00;101575.34;4996507;28;20228;-75
2022/11/13 01:00:21;;;;;;;21.38;13.90;;;;;;;5.53;100.00;101570.00;4986744;28;20205;-75
2022/11/13 01:02:48;;;;;;;24.33;15.02;;;;;;;5.52;100.00;101578.91;4999176;28;20203;-74
2022/11/13 01:05:14;;;;;;;25.60;14.88;;;;;;;5.50;100.00;101577.16;4997191;28;20281;-72
2022/11/13 01:07:42;;;;;;;51.15;17.40;;;;;;;5.48;100.00;101576.28;5011228;28;20205;-73
2022/11/13 01:10:09;;;;;;;38.25;22.70;;;;;;;5.48;100.00;101577.16;5003929;28;20232;-73
2022/11/13 01:12:36;;;;;;;29.45;17.13;;;;;;;5.48;100.00;101571.81;5005718;28;20228;-71
2022/11/13 01:15:03;;;;;;;24.83;16.38;;;;;;;5.50;100.00;101564.66;5005038;28;20289;-76
2022/11/13 01:17:29;;;;;;;24.17;14.23;;;;;;;5.44;100.00;101564.69;4997091;28;20861;-75
2022/11/13 01:19:56;;;;;;;22.45;15.13;;;;;;;5.44;100.00;101559.34;4993007;28;20239;-74
2022/11/13 01:22:22;;;;;;;26.63;14.95;;;;;;;5.40;100.00;101557.59;4993428;28;20216;-72
2022/11/13 01:24:50;;;;;;;17.73;13.32;;;;;;;5.40;100.00;101558.50;4992750;28;20209;-75
2022/11/13 01:27:17;;;;;;;25.92;14.63;;;;;;;5.43;100.00;101554.91;4985494;28;20223;-73
2022/11/13 01:29:43;;;;;;;25.45;14.15;;;;;;;5.34;100.00;101552.31;4990408;28;20310;-74
2022/11/13 01:32:10;;;;;;;22.08;14.52;;;;;;;5.31;100.00;101553.19;4991148;28;20230;-75
2022/11/13 01:34:36;;;;;;;18.58;14.38;;;;;;;5.25;100.00;101552.34;4992545;28;20209;-75
2022/11/13 01:37:03;;;;;;;26.63;14.55;;;;;;;5.20;100.00;101536.31;4990292;28;20320;-74
2022/11/13 01:39:29;;;;;;;17.90;13.75;;;;;;;5.20;100.00;101541.66;4991542;28;20683;-74
2022/11/13 01:41:58;;;;;;;21.45;13.80;;;;;;;5.18;100.00;101536.34;4992909;28;20690;-74
2022/11/13 01:44:24;;;;;;;17.05;12.65;;;;;;;5.17;100.00;101542.56;4992554;28;20200;-71
2022/11/13 01:46:54;;;;;;;18.25;13.40;;;;;;;5.16;100.00;101535.47;4992149;28;20312;-74
2022/11/13 01:49:28;;;;;;;19.90;12.73;;;;;;;5.12;100.00;101536.38;4996159;28;20272;-74
2022/11/13 01:51:57;;;;;;;19.50;13.18;;;;;;;5.05;100.00;101539.09;4996155;28;20221;-72
2022/11/13 01:54:28;;;;;;;21.38;13.25;;;;;;;5.01;100.00;101532.88;4998157;28;20213;-73
2022/11/13 01:56:56;;;;;;;19.33;13.18;;;;;;;5.04;100.00;101535.50;4994983;28;20264;-76
2022/11/13 01:59:26;;;;;;;20.30;14.70;;;;;;;5.05;100.00;101542.63;4993718;28;20212;-74
2022/11/13 02:01:54;;;;;;;19.10;14.43;;;;;;;5.10;100.00;101535.50;4993532;28;20207;-74
2022/11/13 02:04:21;;;;;;;19.48;14.00;;;;;;;5.11;100.00;101533.69;4991515;28;20224;-74
2022/11/13 02:06:51;;;;;;;28.83;13.88;;;;;;;5.01;100.00;101531.06;4992988;28;20230;-73
2022/11/13 02:09:21;;;;;;;23.75;14.13;;;;;;;4.96;100.00;101532.00;4990141;28;20934;-75
2022/11/13 02:11:48;;;;;;;19.20;13.93;;;;;;;5.05;100.00;101528.41;4996124;28;20242;-75
2022/11/13 02:14:15;;;;;;;17.88;13.27;;;;;;;5.09;100.00;101532.81;4996734;28;20207;-75
2022/11/13 02:16:47;;;;;;;19.40;13.65;;;;;;;5.06;100.00;101528.38;4996590;28;20575;-73
2022/11/13 02:19:19;;;;;;;19.67;12.52;;;;;;;4.98;100.00;101516.88;4986529;28;20220;-76
2022/11/13 02:21:54;;;;;;;50.28;15.52;;;;;;;4.90;100.00;101516.00;4997642;28;20204;-73
2022/11/13 02:24:27;;;;;;;19.48;13.35;;;;;;;4.86;100.00;101523.16;4998532;28;20201;-73
2022/11/13 02:26:56;;;;;;;17.35;13.52;;;;;;;4.83;100.00;101517.81;4998334;28;20311;-75
2022/11/13 02:29:23;;;;;;;43.92;16.67;;;;;;;4.83;100.00;101519.59;4996896;28;20211;-73
2022/11/13 02:31:49;;;;;;;43.35;14.57;;;;;;;4.83;100.00;101523.13;4997957;28;20221;-74
2022/11/13 02:34:16;;;;;;;27.77;12.88;;;;;;;4.83;100.00;101516.94;4997715;28;20685;-74
2022/11/13 02:36:42;;;;;;;18.77;13.95;;;;;;;4.81;100.00;101508.91;4998422;28;20328;-72
2022/11/13 02:39:11;;;;;;;21.17;14.35;;;;;;;4.79;100.00;101516.03;4997145;28;20270;-72
2022/11/13 02:41:39;;;;;;;18.92;14.82;;;;;;;4.76;100.00;101516.06;4990376;28;20564;-74
2022/11/13 02:44:06;;;;;;;37.80;16.25;;;;;;;4.73;100.00;101516.97;4998454;28;20215;-73
2022/11/13 02:46:33;;;;;;;21.90;14.45;;;;;;;4.72;100.00;101515.16;4997294;28;20658;-73
2022/11/13 02:49:00;;;;;;;23.98;14.63;;;;;;;4.75;100.00;101520.50;4996284;28;20207;-71
2022/11/13 02:51:26;;;;;;;43.13;16.67;;;;;;;4.73;100.00;101516.06;4996820;28;20195;-72
2022/11/13 02:53:53;;;;;;;17.50;12.95;;;;;;;4.72;100.00;101511.63;4999264;28;20206;-72
2022/11/13 02:56:19;;;;;;;22.73;14.02;;;;;;;4.75;100.00;101511.63;4997551;28;20570;-74
2022/11/13 02:58:48;;;;;;;25.65;14.05;;;;;;;4.77;100.00;101507.13;4997160;28;20490;-76
2022/11/13 03:01:14;;;;;;;40.85;17.27;;;;;;;4.68;100.00;101501.84;4997914;28;20826;-75
2022/11/13 03:03:41;;;;;;;20.58;15.13;;;;;;;4.65;100.00;101494.75;4995784;28;20721;-73
2022/11/13 03:06:07;;;;;;;26.73;14.48;;;;;;;4.69;100.00;101496.50;4995906;28;20206;-74
2022/11/13 03:08:34;;;;;;;31.00;14.65;;;;;;;4.65;100.00;101496.53;4993242;28;20645;-74
2022/11/13 03:11:07;;;;;;;25.25;15.85;;;;;;;4.67;100.00;101490.28;4995077;28;20213;-72
2022/11/13 03:13:34;;;;;;;19.83;13.35;;;;;;;4.64;100.00;101494.75;4994777;28;20212;-71
2022/11/13 03:16:09;;;;;;;25.27;14.60;;;;;;;4.65;100.00;101486.72;4995826;28;20573;-74
2022/11/13 03:18:36;;;;;;;22.17;14.32;;;;;;;4.57;100.00;101478.78;4993395;28;20224;-73
2022/11/13 03:21:07;;;;;;;20.58;13.48;;;;;;;4.59;100.00;101486.78;4995989;28;20208;-73
2022/11/13 03:23:34;;;;;;;27.60;15.02;;;;;;;4.62;100.00;101486.75;4997248;28;20196;-74
2022/11/13 03:26:03;;;;;;;25.25;15.82;;;;;;;4.56;100.00;101484.97;4997150;28;20205;-73
2022/11/13 03:28:30;;;;;;;24.30;14.77;;;;;;;4.57;100.00;101483.22;4995392;28;20239;-72
2022/11/13 03:30:56;;;;;;;32.35;15.93;;;;;;;4.63;100.00;101485.84;4994610;28;20549;-75
2022/11/13 03:33:25;;;;;;;28.23;14.40;;;;;;;4.63;100.00;101495.63;4998299;28;20223;-73
2022/11/13 03:35:51;;;;;;;21.35;14.63;;;;;;;4.58;100.00;101480.53;4997872;28;20200;-73
2022/11/13 03:38:18;;;;;;;25.77;14.80;;;;;;;4.53;100.00;101473.44;4997011;28;20239;-72
2022/11/13 03:40:44;;;;;;;23.00;14.45;;;;;;;4.53;100.00;101473.44;4999819;28;20204;-72
2022/11/13 03:43:11;;;;;;;20.13;12.40;;;;;;;4.50;100.00;101481.44;5000026;28;20264;-73
2022/11/13 03:45:37;;;;;;;30.92;12.90;;;;;;;4.49;100.00;101477.91;4993969;28;20214;-73
2022/11/13 03:48:05;;;;;;;17.58;13.57;;;;;;;4.51;100.00;101483.22;4997401;28;20224;-72
2022/11/13 03:50:32;;;;;;;18.80;11.95;;;;;;;4.49;100.00;101477.91;4996563;28;20201;-73
2022/11/13 03:52:59;;;;;;;16.90;11.48;;;;;;;4.48;100.00;101485.94;4994877;28;20235;-72
2022/11/13 03:55:26;;;;;;;19.35;12.48;;;;;;;4.43;100.00;101475.22;4992036;28;20199;-72
2022/11/13 03:57:52;;;;;;;18.10;12.70;;;;;;;4.43;100.00;101471.69;4992536;28;20314;-73
2022/11/13 04:00:19;;;;;;;18.63;12.00;;;;;;;4.41;100.00;101481.47;4992699;28;20586;-75
2022/11/13 04:02:45;;;;;;;73.05;18.10;;;;;;;4.29;100.00;101471.72;4997618;28;20557;-74
2022/11/13 04:05:12;;;;;;;19.55;11.30;;;;;;;4.28;100.00;101470.84;4999627;28;20213;-76
2022/11/13 04:07:39;;;;;;;23.40;12.50;;;;;;;4.21;100.00;101466.44;4996060;28;20221;-73
2022/11/13 04:10:07;;;;;;;16.25;11.85;;;;;;;4.20;100.00;101451.28;4992694;28;20232;-73
2022/11/13 04:12:33;;;;;;;14.10;11.27;;;;;;;4.13;100.00;101449.53;5001676;28;20260;-74
2022/11/13 04:15:00;;;;;;;15.13;11.80;;;;;;;4.04;100.00;101441.56;4999416;28;20275;-75
2022/11/13 04:17:26;;;;;;;15.52;12.45;;;;;;;4.03;100.00;101442.47;4996178;28;20219;-74
2022/11/13 04:19:53;;;;;;;20.98;13.15;;;;;;;3.87;100.00;101436.28;5004628;28;20293;-74
2022/11/13 04:22:19;;;;;;;15.65;11.48;;;;;;;3.77;100.00;101440.69;5003565;28;20213;-74
2022/11/13 04:24:47;;;;;;;15.18;11.30;;;;;;;3.65;100.00;101435.41;5001408;28;20203;-73
2022/11/13 04:27:14;;;;;;;15.10;11.13;;;;;;;3.63;100.00;101434.50;4997596;28;20231;-74
2022/11/13 04:29:40;;;;;;;13.73;11.45;;;;;;;3.60;100.00;101431.84;4996791;28;20214;-73
2022/11/13 04:32:07;;;;;;;13.85;11.48;;;;;;;3.51;100.00;101432.75;5004282;28;20238;-72
2022/11/13 04:34:34;;;;;;;16.17;11.75;;;;;;;3.47;100.00;101442.50;5001206;28;20213;-74
2022/11/13 04:37:00;;;;;;;14.45;11.27;;;;;;;3.46;100.00;101432.75;5001433;28;20234;-73
2022/11/13 04:39:27;;;;;;;19.05;11.82;;;;;;;3.48;100.00;101433.63;4996820;28;20580;-74
2022/11/13 04:44:39;;;;;;;18.55;12.40;;;;;;;3.45;100.00;101422.94;4995881;28;20267;-74
2022/11/13 04:47:05;;;;;;;17.38;10.93;;;;;;;3.39;100.00;101422.94;4994743;28;20223;-75
2022/11/13 04:49:32;;;;;;;16.13;12.18;;;;;;;3.33;100.00;101412.31;4994318;28;20203;-74
2022/11/13 04:51:58;;;;;;;18.25;13.38;;;;;;;3.31;100.00;101408.75;4994769;28;20613;-75
2022/11/13 04:54:25;;;;;;;15.63;12.00;;;;;;;3.30;100.00;101412.28;4992441;28;20203;-74
2022/11/13 04:56:51;;;;;;;17.45;12.27;;;;;;;3.24;100.00;101413.19;4992640;28;20223;-74
2022/11/13 04:59:19;;;;;;;16.42;12.35;;;;;;;3.18;100.00;101421.16;4992942;28;20203;-75
2022/11/13 05:01:46;;;;;;;16.02;12.13;;;;;;;3.15;100.00;101414.97;4997104;28;20267;-74
2022/11/13 05:04:13;;;;;;;16.80;12.23;;;;;;;3.13;100.00;101407.84;5000240;28;20282;-76
2022/11/13 05:06:40;;;;;;;18.20;12.35;;;;;;;3.07;100.00;101405.16;4998472;28;20599;-75
2022/11/13 05:09:07;;;;;;;14.77;11.25;;;;;;;3.04;100.00;101397.19;5001932;28;20205;-74
2022/11/13 05:11:33;;;;;;;15.77;12.00;;;;;;;2.97;100.00;101392.75;4999201;28;20370;-74
2022/11/13 05:14:01;;;;;;;19.20;11.98;;;;;;;2.92;100.00;101403.38;4995759;28;20335;-73
2022/11/13 05:16:31;;;;;;;15.88;12.48;;;;;;;2.98;100.00;101404.28;4993532;28;20200;-74
2022/11/13 05:18:58;;;;;;;17.52;11.48;;;;;;;2.90;100.00;101393.63;4994459;28;20208;-75
2022/11/13 05:21:24;;;;;;;19.27;12.55;;;;;;;2.96;100.00;101398.94;4996500;28;20386;-73
2022/11/13 05:23:51;;;;;;;19.38;12.20;;;;;;;2.82;100.00;101392.72;4996879;28;20206;-74
2022/11/13 05:26:18;;;;;;;15.20;11.90;;;;;;;2.79;100.00;101392.72;4996670;28;20271;-73
2022/11/13 05:28:44;;;;;;;15.00;12.20;;;;;;;2.78;100.00;101394.50;4998820;28;20263;-74
2022/11/13 05:31:13;;;;;;;13.57;11.00;;;;;;;2.66;100.00;101382.03;4999847;28;20200;-75
2022/11/13 05:33:42;;;;;;;19.92;11.50;;;;;;;2.64;100.00;101385.56;5006040;28;20704;-73
2022/11/13 05:36:10;;;;;;;16.05;12.32;;;;;;;2.60;100.00;101379.38;4997844;28;20294;-75
2022/11/13 05:38:38;;;;;;;16.67;12.02;;;;;;;2.58;100.00;101383.78;5008573;28;20223;-75
2022/11/13 05:41:06;;;;;;;14.82;11.35;;;;;;;2.62;100.00;101380.25;5001385;28;20234;-76
2022/11/13 05:43:32;;;;;;;14.50;11.60;;;;;;;2.57;100.00;101371.34;5004872;28;20633;-74
2022/11/13 05:46:03;;;;;;;13.20;11.02;;;;;;;2.60;100.00;101374.06;5003018;28;20203;-76
2022/11/13 05:48:30;;;;;;;14.15;10.32;;;;;;;2.55;100.00;101374.91;5001821;28;20225;-75
2022/11/13 05:51:02;;;;;;;14.38;11.32;;;;;;;2.50;100.00;101370.44;4996284;28;20207;-76
2022/11/13 05:53:29;;;;;;;14.55;11.45;;;;;;;2.51;100.00;101368.69;4992095;28;20302;-75
2022/11/13 05:56:00;;;;;;;15.80;12.43;;;;;;;2.52;100.00;101367.81;4994340;28;20199;-76
2022/11/13 05:58:27;;;;;;;14.07;11.50;;;;;;;2.49;100.00;101378.44;5000941;28;20211;-75
2022/11/13 06:00:54;;;;;;;14.90;11.00;;;;;;;2.48;100.00;101376.66;5006905;28;20237;-75
2022/11/13 06:03:21;;;;;;;17.67;11.07;;;;;;;2.39;100.00;101372.19;4996664;28;20256;-74
2022/11/13 06:05:47;;;;;;;15.70;11.02;;;;;;;2.40;100.00;101362.47;4994876;28;20210;-76
2022/11/13 06:08:15;;;;;;;16.73;9.70;;;;;;;2.40;100.00;101367.78;4996785;28;20222;-76
2022/11/13 06:10:42;;;;;;;13.20;10.18;;;;;;;2.34;100.00;101359.78;4998713;28;20266;-75
2022/11/13 06:13:08;;;;;;;15.25;10.80;;;;;;;2.26;100.00;101352.66;4998571;28;20419;-77
2022/11/13 06:15:35;;;;;;;11.70;9.35;;;;;;;2.25;100.00;101350.88;4997374;28;20680;-76
2022/11/13 06:18:01;;;;;;;13.07;11.10;;;;;;;2.23;100.00;101347.31;4997003;28;20233;-76
2022/11/13 06:20:28;;;;;;;14.07;9.73;;;;;;;2.18;100.00;101335.78;4995949;28;20286;-76
2022/11/13 06:22:55;;;;;;;15.18;10.20;;;;;;;2.08;100.00;101333.94;4996106;28;20196;-75
2022/11/13 06:25:22;;;;;;;13.75;10.57;;;;;;;2.05;100.00;101333.94;4992883;28;20199;-75
2022/11/13 06:27:49;;;;;;;13.35;10.30;;;;;;;1.99;100.00;101337.47;4996284;28;20226;-74
2022/11/13 06:30:16;;;;;;;14.63;10.50;;;;;;;2.01;100.00;101337.47;4982869;28;20261;-76
2022/11/13 06:32:43;;;;;;;12.35;10.13;;;;;;;2.05;100.00;101334.84;4996771;28;20808;-75
2022/11/13 06:35:09;;;;;;;14.57;10.48;;;;;;;2.08;100.00;101331.28;4994999;28;20231;-73
2022/11/13 06:37:36;;;;;;;14.13;10.85;;;;;;;2.01;100.00;101329.50;4991271;28;20239;-75
2022/11/13 06:40:03;;;;;;;15.23;11.70;;;;;;;1.96;100.00;101324.16;4994421;28;20210;-74
2022/11/13 06:42:31;;;;;;;15.63;10.93;;;;;;;1.95;100.00;101329.50;4993985;28;20224;-75
2022/11/13 06:44:57;;;;;;;10.77;9.10;;;;;;;1.94;100.00;101330.34;4998845;28;20295;-75
2022/11/13 06:47:24;;;;;;;14.75;10.25;;;;;;;2.01;100.00;101327.75;4994751;28;20308;-74
2022/11/13 06:49:50;;;;;;;13.05;10.25;;;;;;;2.07;100.00;101327.75;4994912;28;20693;-76
2022/11/13 06:52:18;;;;;;;14.30;10.93;;;;;;;2.06;100.00;101330.44;4996784;28;20211;-75
2022/11/13 06:54:45;;;;;;;12.80;9.77;;;;;;;2.07;100.00;101332.19;4996550;28;20223;-76
2022/11/13 06:57:11;;;;;;;13.13;10.63;;;;;;;2.09;100.00;101333.97;4996269;28;20219;-75
2022/11/13 06:59:39;;;;;;;13.73;10.55;;;;;;;2.12;100.00;101334.88;5005376;28;20271;-76
2022/11/13 07:02:06;;;;;;;14.32;10.90;;;;;;;2.16;100.00;101332.22;5015182;28;20298;-76
2022/11/13 07:04:32;;;;;;;13.30;10.75;;;;;;;2.38;100.00;101332.31;5015125;28;20200;-75
2022/11/13 07:06:59;;;;;;;15.07;11.05;;;;;;;2.57;100.00;101336.78;5009039;28;20291;-77
2022/11/13 07:09:25;;;;;;;15.63;11.15;;;;;;;2.72;100.00;101333.28;4997611;28;20209;-74
2022/11/13 07:11:52;;;;;;;13.82;10.70;;;;;;;3.05;100.00;101335.09;4998834;28;20207;-76
2022/11/13 07:14:19;;;;;;;14.52;11.52;;;;;;;3.27;100.00;101327.97;4998450;28;20219;-75
2022/11/13 07:16:47;;;;;;;16.27;11.90;;;;;;;3.99;100.00;101328.75;5001049;28;20230;-77
2022/11/13 07:19:13;;;;;;;11.57;10.35;;;;;;;4.87;100.00;101331.84;4999759;28;20294;-76
2022/11/13 07:21:40;;;;;;;14.68;10.00;;;;;;;5.84;100.00;101329.19;4996704;28;20204;-76
2022/11/13 07:24:07;;;;;;;17.25;12.40;;;;;;;6.65;100.00;101329.97;4995573;28;20236;-75
2022/11/13 07:26:33;;;;;;;20.60;16.10;;;;;;;7.38;100.00;101330.59;4996086;28;20246;-76
2022/11/13 07:29:00;;;;;;;13.13;10.20;;;;;;;7.72;100.00;101332.66;4996474;28;20599;-76
2022/11/13 07:31:27;;;;;;;8.48;7.43;;;;;;;7.87;100.00;101326.13;4996354;28;20217;-76
2022/11/13 07:33:54;;;;;;;10.95;8.98;;;;;;;8.93;100.00;101326.53;5001753;28;20372;-74
2022/11/13 07:36:21;;;;;;;8.48;7.57;;;;;;;9.54;100.00;101319.66;4996436;28;20199;-75
2022/11/13 07:38:49;;;;;;;14.60;11.75;;;;;;;10.20;100.00;101312.44;4997943;28;20203;-75
2022/11/13 07:41:15;;;;;;;11.93;10.68;;;;;;;10.48;100.00;101308.06;4996876;28;20195;-75
2022/11/13 07:43:42;;;;;;;9.70;7.80;;;;;;;10.47;100.00;101312.56;4997095;28;20203;-74
2022/11/13 07:46:08;;;;;;;13.00;7.97;;;;;;;10.41;100.00;101313.63;4998036;28;20249;-74
2022/11/13 07:48:35;;;;;;;7.65;6.85;;;;;;;11.01;100.00;101314.44;4997984;28;20218;-75
2022/11/13 07:51:03;;;;;;;10.25;9.25;;;;;;;12.11;100.00;101311.53;4997667;28;20290;-77
2022/11/13 07:53:30;;;;;;;10.02;8.98;;;;;;;12.21;100.00;101310.28;4998487;28;20231;-75
2022/11/13 07:56:00;;;;;;;11.10;9.13;;;;;;;12.53;100.00;101308.16;4996821;28;20235;-74
2022/11/13 07:58:27;;;;;;;14.52;10.10;;;;;;;12.81;100.00;101301.66;4995794;28;20567;-74
2022/11/13 08:00:53;;;;;;;12.50;11.07;;;;;;;13.41;93.25;101297.38;4993673;28;20207;-76
2022/11/13 08:03:20;;;;;;;10.38;8.70;;;;;;;13.91;90.77;101304.22;4995938;28;20199;-72
2022/11/13 08:05:46;;;;;;;11.35;9.48;;;;;;;14.38;83.67;101293.00;5000066;28;20219;-76
2022/11/13 08:08:15;;;;;;;8.00;7.22;;;;;;;13.56;87.57;101302.09;4996343;28;20311;-76
2022/11/13 08:10:42;;;;;;;9.23;8.25;;;;;;;14.56;79.32;101291.28;4995771;28;20204;-75
2022/11/13 08:13:10;;;;;;;7.60;6.80;;;;;;;14.78;75.26;101300.13;4998076;28;22093;-75
2022/11/13 08:15:37;;;;;;;7.78;7.00;;;;;;;14.87;69.85;101287.09;4994089;28;20203;-76
2022/11/13 08:18:04;;;;;;;8.10;7.40;;;;;;;15.12;67.00;101284.91;4992172;28;20231;-75
2022/11/13 08:20:32;;;;;;;8.77;7.97;;;;;;;15.32;65.43;101275.75;4997068;28;20294;-77
2022/11/13 08:22:59;;;;;;;7.57;6.88;;;;;;;15.68;66.52;101277.53;4996927;28;20213;-74
2022/11/13 08:25:27;;;;;;;28.92;25.73;;;;;;;16.70;60.94;101277.44;4998041;28;20262;-78
2022/11/13 08:27:54;;;;;;;67.23;56.17;;;;;;;17.07;60.00;101276.19;4999965;28;20247;-74
2022/11/13 08:30:22;;;;;;;12.87;11.33;;;;;;;17.50;58.37;101287.25;4997838;28;20537;-75
2022/11/13 08:32:48;;;;;;;7.90;7.20;;;;;;;17.30;56.73;101275.72;4997089;28;20482;-76
2022/11/13 08:35:15;;;;;;;17.97;15.03;;;;;;;18.16;54.94;101277.78;4998005;28;20478;-75
2022/11/13 08:37:42;;;;;;;10.30;9.37;;;;;;;18.61;52.97;101272.19;4998977;28;20486;-76
2022/11/13 08:40:10;;;;;;;9.80;8.80;;;;;;;18.67;51.16;101269.91;5000037;28;20466;-76
2022/11/13 08:42:38;;;;;;;7.30;6.70;;;;;;;17.73;54.73;101261.34;4994535;28;20968;-76
2022/11/13 08:45:05;;;;;;;6.80;6.20;;;;;;;18.12;53.53;101263.47;4997390;28;20461;-76
2022/11/13 08:47:31;;;;;;;6.27;5.77;;;;;;;18.80;50.23;101259.13;4995592;28;20478;-75
2022/11/13 08:49:58;;;;;;;6.70;6.10;;;;;;;19.22;49.77;101254.50;5007939;28;20526;-76
2022/11/13 08:52:25;;;;;;;8.60;6.40;;;;;;;19.94;47.00;101257.69;5008895;28;20525;-75
2022/11/13 08:54:51;;;;;;;7.77;5.80;;;;;;;20.16;45.42;101251.53;5010738;28;20576;-74
2022/11/13 08:57:18;;;;;;;6.10;5.60;;;;;;;19.92;46.67;101251.47;5017813;28;20474;-76
2022/11/13 08:59:46;;;;;;;6.87;6.27;;;;;;;20.23;45.72;101249.25;4998255;28;20469;-76
2022/11/13 09:02:14;;;;;;;7.10;6.50;;;;;;;19.94;46.32;101244.03;5003055;28;20488;-76
2022/11/13 09:04:41;;;;;;;6.70;6.13;;;;;;;20.28;45.43;101246.16;5000637;28;20918;-75
2022/11/13 09:07:08;;;;;;;6.80;6.20;;;;;;;20.81;43.98;101242.22;4999147;28;21021;-76
2022/11/13 09:09:34;;;;;;;7.20;6.60;;;;;;;20.54;43.91;101244.25;4997684;28;20550;-75
2022/11/13 09:12:01;;;;;;;6.70;6.10;;;;;;;19.54;46.53;101232.28;4999621;28;20603;-75
2022/11/13 09:14:28;;;;;;;7.60;7.00;;;;;;;19.56;47.20;101222.97;4995685;28;20475;-76
2022/11/13 09:16:56;;;;;;;7.97;7.23;;;;;;;20.67;45.31;101225.97;4997114;28;20478;-74
2022/11/13 09:19:22;;;;;;;6.63;5.93;;;;;;;22.02;42.32;101231.06;5003906;28;20526;-76
2022/11/13 09:21:50;;;;;;;6.77;6.17;;;;;;;21.75;42.08;101229.53;4998723;28;20442;-75
2022/11/13 09:24:17;;;;;;;7.30;6.60;;;;;;;22.10;41.29;101234.09;4995853;28;20944;-76
2022/11/13 09:26:43;;;;;;;7.20;6.50;;;;;;;22.05;41.37;101222.63;4996388;28;20545;-75
2022/11/13 09:29:10;;;;;;;6.80;6.20;;;;;;;21.49;41.55;101222.53;4998481;28;20462;-76
2022/11/13 09:31:37;;;;;;;6.50;5.90;;;;;;;22.35;40.68;101221.13;5001159;28;20529;-76
2022/11/13 09:34:05;;;;;;;6.70;6.17;;;;;;;21.82;41.03;101218.94;4996925;28;20490;-76
2022/11/13 09:39:06;;;;;;;8.93;8.13;;;;;;;21.48;42.31;101221.63;4989794;28;20493;-75
2022/11/13 09:41:37;;;;;;;8.37;7.67;;;;;;;22.88;40.25;101213.03;4993595;28;20522;-77
2022/11/13 09:44:12;;;;;;;6.90;6.23;;;;;;;23.29;39.18;101214.16;4993996;28;20793;-75
2022/11/13 09:46:43;;;;;;;5.60;5.17;;;;;;;23.65;38.60;101206.44;4987331;28;20883;-76
2022/11/13 09:49:16;;;;;;;8.83;8.07;;;;;;;22.52;39.74;101212.38;4983025;28;20957;-76
2022/11/13 09:51:48;;;;;;;10.47;8.77;;;;;;;22.99;42.07;101193.81;4988093;28;20968;-76
2022/11/13 09:54:16;;;;;;;6.67;6.07;;;;;;;22.93;40.58;101198.91;4996058;28;20466;-75
2022/11/13 09:56:46;;;;;;;7.77;6.67;;;;;;;23.76;39.75;101202.78;4993437;28;20534;-75
2022/11/13 09:59:21;;;;;;;7.40;6.70;;;;;;;23.53;40.77;101192.78;4995925;28;20996;-76
2022/11/13 10:01:54;;;;;;;7.97;6.53;;;;;;;23.69;40.44;101185.94;4989990;28;20454;-76
2022/11/13 10:04:34;;;;;;;6.60;6.10;;;;;;;23.01;40.44;101180.81;4991071;28;20458;-78
2022/11/13 10:07:13;;;;;;;6.60;6.00;;;;;;;23.13;39.66;101167.03;4989793;28;20489;-77
2022/11/13 10:09:54;;;;;;;7.70;7.00;;;;;;;23.60;40.00;101162.00;4986696;28;20556;-79
2022/11/13 10:12:22;;;;;;;6.90;6.40;;;;;;;23.65;39.66;101163.34;4990199;28;20545;-76
2022/11/13 10:14:54;;;;;;;10.47;6.60;;;;;;;23.98;38.38;101174.25;4994744;28;20487;-77
2022/11/13 10:17:26;;;;;;;6.40;5.90;;;;;;;23.61;38.74;101174.75;4991936;28;20486;-75
2022/11/13 10:19:57;;;;;;;8.17;7.47;;;;;;;24.51;37.69;101163.88;4994441;28;20438;-75
2022/11/13 10:22:29;;;;;;;8.73;7.60;;;;;;;25.13;37.19;101174.66;4993711;28;20462;-75
2022/11/13 10:25:01;;;;;;;6.77;6.07;;;;;;;25.02;34.80;101170.16;4996112;28;20525;-76
2022/11/13 10:27:28;;;;;;;7.37;6.70;;;;;;;25.24;36.05;101165.41;4992168;28;20482;-72
2022/11/13 10:29:54;;;;;;;6.53;5.93;;;;;;;24.57;36.29;101161.56;4993360;28;20453;-75
2022/11/13 10:32:23;;;;;;;6.27;5.77;;;;;;;24.76;35.68;101162.47;4997147;28;20529;-72
2022/11/13 10:34:54;;;;;;;6.27;5.77;;;;;;;26.00;34.75;101148.81;4998841;28;20478;-72
2022/11/13 10:37:30;;;;;;;44.90;40.40;;;;;;;26.72;32.83;101143.50;4995397;28;20520;-76
2022/11/13 10:39:56;;;;;;;7.60;6.73;;;;;;;26.47;32.26;101137.66;4995835;28;20461;-76
2022/11/13 10:42:27;;;;;;;6.43;5.70;;;;;;;25.48;32.61;101129.94;4995951;28;20449;-73
2022/11/13 10:44:55;;;;;;;6.10;5.50;;;;;;;25.89;33.03;101121.41;4994304;28;20484;-72
2022/11/13 10:47:24;;;;;;;8.23;7.53;;;;;;;26.95;32.30;101106.06;4993770;28;20492;-73
2022/11/13 10:49:51;;;;;;;7.43;6.83;;;;;;;26.72;32.29;101110.34;4997342;28;20457;-75
2022/11/13 10:52:20;;;;;;;8.97;8.03;;;;;;;27.76;31.93;101109.59;4999463;28;20442;-74
2022/11/13 10:54:50;;;;;;;7.60;6.90;;;;;;;27.82;30.95;101092.34;4997105;28;21011;-74
2022/11/13 10:57:27;;;;;;;7.40;6.80;;;;;;;26.66;32.25;101089.75;4997251;28;20484;-76
2022/11/13 10:59:54;;;;;;;7.27;6.67;;;;;;;27.92;31.10;101087.56;4991643;28;20509;-72
2022/11/13 11:02:23;;;;;;;7.33;6.30;;;;;;;27.53;31.77;101076.97;4997250;28;20457;-71
2022/11/13 11:04:50;;;;;;;6.70;6.10;;;;;;;27.67;31.16;101075.47;5000422;28;20488;-69
2022/11/13 11:07:19;;;;;;;7.37;6.67;;;;;;;28.18;30.99;101061.72;4998388;28;20493;-72
2022/11/13 11:09:48;;;;;;;7.10;6.20;;;;;;;27.38;31.21;101050.94;4995486;28;20442;-74
2022/11/13 11:12:22;;;;;;;6.87;6.27;;;;;;;27.84;31.27;101052.44;4995358;28;20450;-75
2022/11/13 11:15:03;;;;;;;7.27;6.67;;;;;;;26.99;32.00;101046.66;4994795;28;20481;-75
2022/11/13 11:17:37;;;;;;;7.20;6.20;;;;;;;26.86;32.07;101024.09;4994059;28;20539;-71
2022/11/13 11:20:08;;;;;;;7.50;6.73;;;;;;;27.86;31.20;101013.53;4998298;28;20439;-72
2022/11/13 11:22:38;;;;;;;8.70;6.50;;;;;;;27.88;30.95;101005.91;5002201;28;20470;-77